createdAt,value
2023-01-22T00:00:31.643Z,16.45
2023-01-22T00:01:31.647Z,16.44
2023-01-22T00:02:31.720Z,16.48
2023-01-22T00:03:31.732Z,16.45
2023-01-22T00:04:31.839Z,16.42
2023-01-22T00:05:32.070Z,16.50
2023-01-22T00:06:31.790Z,16.45
2023-01-22T00:07:31.815Z,16.44
2023-01-22T00:09:31.870Z,16.48
2023-01-22T00:10:31.888Z,16.44
2023-01-22T00:11:31.912Z,16.48
2023-01-22T00:12:32.243Z,16.47
2023-01-22T00:13:31.973Z,16.42
2023-01-22T00:14:32.091Z,16.47
2023-01-22T00:15:32.050Z,16.44
2023-01-22T00:17:32.092Z,16.47
2023-01-22T00:19:32.123Z,16.42
2023-01-22T00:20:32.451Z,16.45
2023-01-22T00:21:32.186Z,16.40
2023-01-22T00:22:32.251Z,16.41
2023-01-22T00:23:32.230Z,16.40
2023-01-22T00:24:32.263Z,16.48
2023-01-22T00:25:32.283Z,16.52
2023-01-22T00:26:32.351Z,16.55
2023-01-22T00:27:32.646Z,16.50
2023-01-22T00:28:32.382Z,16.50
2023-01-22T00:29:32.395Z,16.54
2023-01-22T00:31:32.609Z,16.50
2023-01-22T00:32:32.468Z,16.55
2023-01-22T00:33:32.705Z,16.55
2023-01-22T00:34:32.850Z,16.55
2023-01-22T00:35:32.552Z,16.54
2023-01-22T00:37:32.609Z,16.42
2023-01-22T00:38:32.642Z,16.55
2023-01-22T00:39:32.733Z,16.52
2023-01-22T00:40:32.743Z,16.51
2023-01-22T00:41:33.017Z,16.51
2023-01-22T00:42:32.740Z,16.57
2023-01-22T00:43:32.767Z,16.52
2023-01-22T00:45:32.837Z,16.52
2023-01-22T00:46:32.877Z,16.51
2023-01-22T00:47:32.884Z,16.54
2023-01-22T00:48:33.204Z,16.52
2023-01-22T00:49:32.949Z,16.52
2023-01-22T00:50:32.957Z,16.54
2023-01-22T00:51:32.983Z,16.50
2023-01-22T00:52:33.007Z,16.52
2023-01-22T00:53:33.033Z,16.52
2023-01-22T00:54:33.065Z,16.45
2023-01-22T00:55:33.393Z,16.55
2023-01-22T00:56:33.123Z,16.40
2023-01-22T00:57:33.153Z,16.51
2023-01-22T00:58:33.159Z,16.57
2023-01-22T00:59:33.504Z,16.52
2023-01-22T01:00:33.228Z,16.54
2023-01-22T01:01:33.244Z,16.51
2023-01-22T01:02:33.571Z,16.54
2023-01-22T01:03:33.318Z,16.50
2023-01-22T01:05:33.352Z,16.55
2023-01-22T01:06:33.401Z,16.40
2023-01-22T01:07:33.420Z,16.57
2023-01-22T01:08:33.442Z,16.55
2023-01-22T01:09:33.763Z,16.52
2023-01-22T01:10:33.485Z,16.54
2023-01-22T01:11:33.509Z,16.51
2023-01-22T01:12:33.659Z,16.51
2023-01-22T01:13:33.572Z,16.51
2023-01-22T01:14:33.604Z,16.47
2023-01-22T01:15:33.618Z,16.48
2023-01-22T01:16:33.956Z,16.47
2023-01-22T01:17:33.784Z,16.45
2023-01-22T01:20:33.790Z,16.48
2023-01-22T01:21:33.791Z,16.47
2023-01-22T01:22:33.813Z,16.42
2023-01-22T01:23:34.170Z,16.37
2023-01-22T01:25:33.892Z,16.44
2023-01-22T01:26:33.912Z,16.47
2023-01-22T01:27:33.937Z,16.44
2023-01-22T01:28:34.085Z,16.44
2023-01-22T01:29:34.000Z,16.40
2023-01-22T01:30:34.330Z,16.44
2023-01-22T01:31:34.068Z,16.41
2023-01-22T01:32:34.081Z,16.42
2023-01-22T01:33:34.105Z,16.40
2023-01-22T01:34:34.128Z,16.42
2023-01-22T01:35:34.153Z,16.42
2023-01-22T01:36:49.903Z,16.40
2023-01-22T01:37:34.210Z,16.41
2023-01-22T01:38:34.228Z,16.41
2023-01-22T01:39:34.262Z,16.36
2023-01-22T01:40:34.294Z,16.37
2023-01-22T01:41:34.331Z,16.45
2023-01-22T01:42:34.352Z,16.44
2023-01-22T01:43:34.669Z,16.34
2023-01-22T01:44:34.527Z,16.33
2023-01-22T01:45:34.446Z,16.37
2023-01-22T01:46:34.514Z,16.47
2023-01-22T01:47:34.484Z,16.40
2023-01-22T01:48:34.513Z,16.32
2023-01-22T01:49:34.846Z,16.34
2023-01-22T01:50:34.565Z,16.32
2023-01-22T01:51:34.582Z,16.41
2023-01-22T01:52:34.615Z,16.37
2023-01-22T01:54:34.667Z,16.29
2023-01-22T01:57:35.504Z,16.40
2023-01-22T01:58:34.781Z,16.40
2023-01-22T01:59:34.899Z,16.29
2023-01-22T02:00:34.980Z,16.30
2023-01-22T02:01:34.872Z,16.32
2023-01-22T02:02:35.284Z,16.29
2023-01-22T02:03:35.003Z,16.27
2023-01-22T02:04:34.933Z,16.32
2023-01-22T02:05:34.959Z,16.25
2023-01-22T02:07:35.012Z,16.33
2023-01-22T02:08:35.037Z,16.27
2023-01-22T02:09:35.364Z,16.33
2023-01-22T02:10:35.092Z,16.26
2023-01-22T02:11:35.122Z,16.26
2023-01-22T02:12:35.143Z,16.30
2023-01-22T02:13:35.173Z,16.18
2023-01-22T02:14:35.199Z,16.26
2023-01-22T02:15:35.233Z,16.32
2023-01-22T02:16:35.716Z,16.30
2023-01-22T02:17:35.385Z,16.23
2023-01-22T02:18:35.312Z,16.18
2023-01-22T02:19:35.338Z,16.23
2023-01-22T02:20:35.360Z,16.23
2023-01-22T02:21:35.442Z,16.23
2023-01-22T02:22:35.411Z,16.13
2023-01-22T02:23:35.742Z,16.29
2023-01-22T02:24:35.468Z,16.18
2023-01-22T02:25:35.491Z,16.30
2023-01-22T02:27:35.657Z,16.17
2023-01-22T02:28:35.573Z,16.17
2023-01-22T02:29:35.597Z,16.17
2023-01-22T02:30:35.942Z,16.16
2023-01-22T02:31:35.684Z,16.25
2023-01-22T02:32:35.818Z,16.22
2023-01-22T02:33:35.704Z,16.17
2023-01-22T02:34:35.734Z,16.14
2023-01-22T02:35:35.763Z,16.17
2023-01-22T02:37:35.821Z,16.16
2023-01-22T02:38:36.144Z,16.13
2023-01-22T02:39:35.866Z,16.10
2023-01-22T02:41:35.926Z,16.16
2023-01-22T02:42:35.950Z,16.14
2023-01-22T02:43:35.998Z,16.10
2023-01-22T02:44:36.003Z,16.14
2023-01-22T02:45:36.395Z,16.11
2023-01-22T02:46:36.059Z,16.06
2023-01-22T02:47:36.087Z,16.16
2023-01-22T02:48:36.228Z,16.14
2023-01-22T02:49:36.142Z,16.17
2023-01-22T02:50:36.166Z,16.10
2023-01-22T02:51:36.224Z,16.13
2023-01-22T02:52:36.531Z,16.13
2023-01-22T02:53:36.248Z,16.11
2023-01-22T02:54:36.268Z,16.11
2023-01-22T02:55:36.304Z,16.08
2023-01-22T02:56:36.322Z,16.04
2023-01-22T02:57:36.355Z,16.07
2023-01-22T02:58:36.375Z,16.08
2023-01-22T02:59:36.708Z,16.14
2023-01-22T03:01:36.451Z,16.11
2023-01-22T03:02:36.503Z,16.06
2023-01-22T03:04:36.725Z,16.07
2023-01-22T03:05:36.570Z,16.01
2023-01-22T03:07:36.913Z,16.03
2023-01-22T03:08:36.955Z,16.01
2023-01-22T03:09:36.774Z,16.04
2023-01-22T03:10:36.694Z,16.01
2023-01-22T03:11:36.728Z,16.01
2023-01-22T03:12:36.752Z,15.99
2023-01-22T03:13:36.806Z,15.99
2023-01-22T03:14:37.129Z,15.96
2023-01-22T03:15:36.928Z,15.96
2023-01-22T03:16:36.924Z,15.93
2023-01-22T03:19:36.938Z,15.93
2023-01-22T03:22:37.144Z,15.95
2023-01-22T03:23:37.344Z,16.01
2023-01-22T03:24:37.074Z,15.93
2023-01-22T03:25:37.103Z,15.85
2023-01-22T03:26:37.131Z,15.93
2023-01-22T03:27:37.160Z,15.89
2023-01-22T03:28:37.178Z,15.93
2023-01-22T03:29:37.505Z,15.96
2023-01-22T03:30:37.241Z,15.92
2023-01-22T03:31:37.416Z,15.91
2023-01-22T03:32:37.281Z,15.92
2023-01-22T03:33:37.310Z,15.91
2023-01-22T03:34:37.339Z,15.89
2023-01-22T03:35:37.369Z,15.93
2023-01-22T03:36:37.707Z,15.88
2023-01-22T03:38:37.553Z,15.88
2023-01-22T03:39:37.481Z,15.85
2023-01-22T03:40:37.490Z,15.88
2023-01-22T03:41:37.525Z,15.85
2023-01-22T03:42:37.546Z,15.91
2023-01-22T03:43:37.880Z,15.78
2023-01-22T03:44:37.626Z,15.84
2023-01-22T03:45:37.643Z,15.89
2023-01-22T03:46:37.652Z,15.85
2023-01-22T03:47:37.681Z,15.77
2023-01-22T03:49:37.738Z,15.84
2023-01-22T03:50:38.062Z,15.81
2023-01-22T03:51:37.807Z,15.78
2023-01-22T03:52:37.817Z,15.91
2023-01-22T03:53:37.868Z,15.80
2023-01-22T03:54:37.985Z,15.80
2023-01-22T03:55:37.908Z,15.77
2023-01-22T03:56:37.924Z,15.76
2023-01-22T03:57:38.252Z,15.77
2023-01-22T03:58:37.968Z,15.73
2023-01-22T03:59:38.004Z,15.76
2023-01-22T04:00:38.057Z,15.74
2023-01-22T04:01:38.055Z,15.73
2023-01-22T04:02:38.184Z,15.76
2023-01-22T04:03:38.113Z,15.73
2023-01-22T04:04:38.439Z,15.73
2023-01-22T04:05:38.162Z,15.74
2023-01-22T04:06:38.208Z,15.76
2023-01-22T04:07:38.526Z,15.74
2023-01-22T04:08:38.240Z,15.74
2023-01-22T04:09:38.269Z,15.73
2023-01-22T04:10:38.417Z,15.66
2023-01-22T04:11:38.623Z,15.64
2023-01-22T04:12:38.353Z,15.70
2023-01-22T04:13:38.376Z,15.74
2023-01-22T04:14:38.398Z,15.73
2023-01-22T04:15:38.428Z,15.67
2023-01-22T04:16:38.494Z,15.62
2023-01-22T04:17:38.482Z,15.66
2023-01-22T04:18:38.808Z,15.64
2023-01-22T04:19:38.538Z,15.66
2023-01-22T04:20:38.562Z,15.64
2023-01-22T04:21:38.581Z,15.66
2023-01-22T04:22:38.609Z,15.66
2023-01-22T04:23:38.635Z,15.64
2023-01-22T04:24:38.673Z,15.60
2023-01-22T04:25:38.992Z,15.64
2023-01-22T04:26:38.841Z,15.59
2023-01-22T04:27:38.740Z,15.62
2023-01-22T04:28:38.787Z,15.62
2023-01-22T04:29:38.805Z,15.64
2023-01-22T04:30:39.114Z,15.59
2023-01-22T04:31:38.998Z,15.60
2023-01-22T04:33:39.214Z,15.60
2023-01-22T04:34:38.932Z,15.74
2023-01-22T04:35:38.955Z,15.68
2023-01-22T04:36:38.982Z,15.64
2023-01-22T04:37:39.015Z,15.66
2023-01-22T04:39:39.062Z,15.58
2023-01-22T04:40:39.394Z,15.62
2023-01-22T04:41:39.129Z,15.70
2023-01-22T04:42:39.315Z,15.59
2023-01-22T04:43:39.166Z,15.64
2023-01-22T04:44:39.199Z,15.58
2023-01-22T04:45:39.220Z,15.62
2023-01-22T04:46:39.248Z,15.59
2023-01-22T04:47:39.681Z,15.66
2023-01-22T04:48:39.300Z,15.64
2023-01-22T04:49:39.326Z,15.53
2023-01-22T04:50:39.352Z,15.66
2023-01-22T04:51:39.378Z,15.53
2023-01-22T04:52:39.411Z,15.51
2023-01-22T04:53:39.488Z,15.62
2023-01-22T04:54:39.779Z,15.62
2023-01-22T04:55:39.483Z,15.60
2023-01-22T04:56:39.513Z,15.64
2023-01-22T04:57:39.637Z,15.64
2023-01-22T04:59:39.731Z,15.56
2023-01-22T05:00:39.631Z,15.62
2023-01-22T05:01:39.969Z,15.56
2023-01-22T05:02:39.759Z,15.60
2023-01-22T05:03:39.696Z,15.56
2023-01-22T05:04:39.728Z,15.59
2023-01-22T05:05:39.753Z,15.56
2023-01-22T05:06:39.775Z,15.58
2023-01-22T05:07:39.804Z,15.59
2023-01-22T05:09:40.156Z,15.59
2023-01-22T05:10:39.883Z,15.55
2023-01-22T05:11:39.910Z,15.56
2023-01-22T05:12:39.939Z,15.55
2023-01-22T05:13:39.961Z,15.59
2023-01-22T05:14:40.006Z,15.60
2023-01-22T05:15:40.145Z,15.56
2023-01-22T05:16:40.353Z,15.62
2023-01-22T05:17:40.072Z,15.58
2023-01-22T05:18:40.233Z,15.62
2023-01-22T05:19:40.138Z,15.52
2023-01-22T05:20:40.153Z,15.58
2023-01-22T05:21:40.277Z,15.51
2023-01-22T05:22:40.199Z,15.48
2023-01-22T05:23:40.525Z,15.44
2023-01-22T05:24:40.260Z,15.52
2023-01-22T05:25:40.275Z,15.51
2023-01-22T05:26:40.304Z,15.52
2023-01-22T05:27:40.352Z,15.51
2023-01-22T05:28:40.360Z,15.52
2023-01-22T05:29:40.384Z,15.51
2023-01-22T05:30:40.816Z,15.53
2023-01-22T05:31:40.623Z,15.49
2023-01-22T05:33:40.496Z,15.49
2023-01-22T05:34:40.519Z,15.46
2023-01-22T05:35:40.542Z,15.51
2023-01-22T05:36:40.569Z,15.51
2023-01-22T05:37:40.898Z,15.52
2023-01-22T05:38:40.630Z,15.53
2023-01-22T05:39:40.650Z,15.48
2023-01-22T05:40:40.685Z,15.46
2023-01-22T05:41:40.707Z,15.51
2023-01-22T05:42:40.735Z,15.51
2023-01-22T05:43:40.764Z,15.43
2023-01-22T05:44:41.079Z,15.46
2023-01-22T05:45:40.810Z,15.49
2023-01-22T05:46:40.839Z,15.48
2023-01-22T05:47:40.975Z,15.40
2023-01-22T05:48:40.895Z,15.49
2023-01-22T05:49:40.921Z,15.43
2023-01-22T05:50:40.942Z,15.44
2023-01-22T05:51:41.293Z,15.46
2023-01-22T05:52:41.095Z,15.49
2023-01-22T05:53:41.382Z,15.51
2023-01-22T05:54:41.061Z,15.44
2023-01-22T05:55:41.075Z,15.49
2023-01-22T05:56:41.105Z,15.46
2023-01-22T05:58:41.170Z,15.44
2023-01-22T05:59:41.582Z,15.46
2023-01-22T06:00:41.209Z,15.40
2023-01-22T06:01:41.245Z,15.53
2023-01-22T06:03:41.484Z,15.44
2023-01-22T06:04:41.313Z,15.48
2023-01-22T06:05:41.336Z,15.35
2023-01-22T06:07:41.400Z,15.37
2023-01-22T06:08:41.428Z,15.44
2023-01-22T06:09:41.450Z,15.46
2023-01-22T06:10:41.471Z,15.44
2023-01-22T06:11:41.574Z,15.44
2023-01-22T06:12:41.526Z,15.46
2023-01-22T06:14:41.876Z,15.46
2023-01-22T06:15:41.721Z,15.46
2023-01-22T06:16:41.627Z,15.46
2023-01-22T06:17:41.653Z,15.52
2023-01-22T06:18:41.699Z,15.37
2023-01-22T06:19:41.818Z,15.38
2023-01-22T06:20:41.733Z,15.41
2023-01-22T06:21:42.057Z,15.46
2023-01-22T06:22:41.786Z,15.37
2023-01-22T06:23:41.812Z,15.41
2023-01-22T06:24:41.839Z,15.43
2023-01-22T06:25:41.872Z,15.34
2023-01-22T06:26:41.895Z,15.37
2023-01-22T06:27:41.916Z,15.41
2023-01-22T06:28:42.242Z,15.37
2023-01-22T06:29:41.966Z,15.38
2023-01-22T06:30:42.071Z,15.34
2023-01-22T06:31:42.103Z,15.33
2023-01-22T06:32:42.069Z,15.38
2023-01-22T06:33:42.083Z,15.37
2023-01-22T06:34:42.105Z,15.43
2023-01-22T06:35:42.550Z,15.37
2023-01-22T06:36:43.633Z,15.38
2023-01-22T06:37:42.190Z,15.37
2023-01-22T06:38:42.203Z,15.38
2023-01-22T06:39:42.229Z,15.38
2023-01-22T06:41:42.288Z,15.37
2023-01-22T06:42:42.611Z,15.37
2023-01-22T06:43:42.337Z,15.34
2023-01-22T06:44:42.367Z,15.35
2023-01-22T06:45:42.391Z,15.38
2023-01-22T06:46:42.492Z,15.31
2023-01-22T06:47:42.444Z,15.37
2023-01-22T06:48:42.485Z,15.38
2023-01-22T06:49:42.807Z,15.34
2023-01-22T06:50:42.522Z,15.33
2023-01-22T06:51:42.662Z,15.41
2023-01-22T06:52:42.581Z,15.31
2023-01-22T06:53:42.617Z,15.31
2023-01-22T06:54:42.630Z,15.35
2023-01-22T06:55:42.657Z,15.31
2023-01-22T06:56:42.990Z,15.34
2023-01-22T06:57:42.713Z,15.37
2023-01-22T06:58:42.737Z,15.33
2023-01-22T06:59:42.774Z,15.33
2023-01-22T07:00:42.786Z,15.33
2023-01-22T07:01:42.825Z,15.28
2023-01-22T07:02:42.845Z,15.30
2023-01-22T07:03:43.228Z,15.28
2023-01-22T07:04:42.887Z,15.31
2023-01-22T07:05:42.929Z,15.38
2023-01-22T07:06:42.956Z,15.27
2023-01-22T07:07:43.090Z,15.25
2023-01-22T07:08:43.002Z,15.30
2023-01-22T07:10:43.063Z,15.31
2023-01-22T07:11:43.403Z,15.25
2023-01-22T07:13:43.132Z,15.31
2023-01-22T07:15:43.211Z,15.35
2023-01-22T07:16:43.239Z,15.33
2023-01-22T07:17:43.279Z,15.34
2023-01-22T07:19:43.588Z,15.28
2023-01-22T07:20:43.395Z,15.31
2023-01-22T07:21:43.348Z,15.35
2023-01-22T07:22:43.375Z,15.38
2023-01-22T07:23:43.517Z,15.33
2023-01-22T07:24:43.415Z,15.31
2023-01-22T07:25:43.446Z,15.34
2023-01-22T07:26:43.776Z,15.33
2023-01-22T07:27:43.507Z,15.23
2023-01-22T07:28:43.530Z,15.33
2023-01-22T07:29:43.553Z,15.34
2023-01-22T07:30:43.669Z,15.23
2023-01-22T07:31:43.696Z,15.33
2023-01-22T07:32:43.634Z,15.28
2023-01-22T07:33:43.957Z,15.34
2023-01-22T07:34:43.683Z,15.23
2023-01-22T07:36:43.740Z,15.31
2023-01-22T07:37:43.762Z,15.20
2023-01-22T07:39:43.937Z,15.25
2023-01-22T07:40:44.140Z,15.23
2023-01-22T07:41:43.879Z,15.27
2023-01-22T07:42:43.893Z,15.28
2023-01-22T07:43:43.926Z,15.34
2023-01-22T07:44:43.975Z,15.31
2023-01-22T07:45:43.980Z,15.30
2023-01-22T07:46:44.047Z,15.38
2023-01-22T07:47:44.325Z,15.28
2023-01-22T07:48:45.823Z,15.33
2023-01-22T07:49:44.085Z,15.31
2023-01-22T07:50:44.102Z,15.25
2023-01-22T07:51:44.140Z,15.34
2023-01-22T07:52:44.151Z,15.33
2023-01-22T07:53:44.185Z,15.33
2023-01-22T07:54:44.512Z,15.33
2023-01-22T07:55:44.346Z,15.30
2023-01-22T07:56:44.266Z,15.34
2023-01-22T07:57:44.285Z,15.30
2023-01-22T07:58:44.315Z,15.28
2023-01-22T07:59:44.343Z,15.30
2023-01-22T08:00:44.463Z,15.28
2023-01-22T08:01:44.721Z,15.33
2023-01-22T08:02:44.421Z,15.25
2023-01-22T08:03:44.445Z,15.20
2023-01-22T08:04:44.479Z,15.25
2023-01-22T08:05:44.497Z,15.25
2023-01-22T08:06:44.526Z,15.23
2023-01-22T08:07:44.598Z,15.25
2023-01-22T08:08:44.875Z,15.19
2023-01-22T08:09:44.628Z,15.25
2023-01-22T08:10:44.634Z,15.30
2023-01-22T08:11:44.771Z,15.28
2023-01-22T08:12:46.444Z,15.23
2023-01-22T08:13:44.810Z,15.23
2023-01-22T08:14:45.037Z,15.31
2023-01-22T08:15:44.765Z,15.22
2023-01-22T08:16:45.044Z,15.23
2023-01-22T08:17:46.476Z,15.28
2023-01-22T08:18:45.489Z,15.28
2023-01-22T08:19:45.297Z,15.27
2023-01-22T08:20:47.407Z,15.22
2023-01-22T08:21:46.138Z,15.23
2023-01-22T08:22:45.763Z,15.23
2023-01-22T08:24:45.000Z,15.27
2023-01-22T08:25:45.026Z,15.25
2023-01-22T08:26:45.066Z,15.28
2023-01-22T08:28:45.522Z,15.23
2023-01-22T08:29:45.143Z,15.23
2023-01-22T08:30:46.648Z,15.20
2023-01-22T08:31:45.288Z,15.22
2023-01-22T08:32:45.212Z,15.23
2023-01-22T08:34:45.581Z,15.20
2023-01-22T08:35:45.283Z,15.23
2023-01-22T08:36:45.316Z,15.28
2023-01-22T08:37:45.371Z,15.25
2023-01-22T08:38:45.371Z,15.25
2023-01-22T08:39:45.389Z,15.20
2023-01-22T08:40:45.720Z,15.23
2023-01-22T08:41:45.461Z,15.25
2023-01-22T08:42:45.597Z,15.23
2023-01-22T08:43:45.524Z,15.20
2023-01-22T08:44:45.957Z,15.23
2023-01-22T08:45:45.594Z,15.25
2023-01-22T08:46:45.595Z,15.20
2023-01-22T08:47:45.904Z,15.22
2023-01-22T08:48:45.627Z,15.28
2023-01-22T08:49:45.651Z,15.30
2023-01-22T08:50:45.681Z,15.28
2023-01-22T08:52:45.743Z,15.20
2023-01-22T08:54:45.787Z,15.22
2023-01-22T08:55:46.109Z,15.23
2023-01-22T08:56:45.841Z,15.25
2023-01-22T08:57:45.872Z,15.22
2023-01-22T08:58:45.889Z,15.25
2023-01-22T08:59:59.763Z,15.28
2023-01-22T09:00:46.081Z,15.30
2023-01-22T09:01:45.992Z,15.23
2023-01-22T09:02:46.314Z,15.23
2023-01-22T09:03:46.021Z,15.25
2023-01-22T09:04:46.052Z,15.20
2023-01-22T09:05:46.075Z,15.27
2023-01-22T09:06:46.108Z,15.23
2023-01-22T09:07:46.149Z,15.23
2023-01-22T09:08:46.152Z,15.25
2023-01-22T09:09:46.493Z,15.22
2023-01-22T09:10:46.202Z,15.23
2023-01-22T09:11:46.226Z,15.28
2023-01-22T09:12:46.254Z,15.31
2023-01-22T09:13:46.283Z,15.27
2023-01-22T09:14:46.316Z,15.23
2023-01-22T09:15:46.336Z,15.31
2023-01-22T09:16:46.853Z,15.35
2023-01-22T09:17:46.441Z,15.30
2023-01-22T09:18:46.415Z,15.28
2023-01-22T09:19:49.015Z,15.31
2023-01-22T09:20:46.583Z,15.35
2023-01-22T09:21:46.508Z,15.35
2023-01-22T09:22:46.523Z,15.31
2023-01-22T09:23:46.845Z,15.33
2023-01-22T09:24:46.572Z,15.38
2023-01-22T09:25:46.604Z,15.35
2023-01-22T09:26:46.626Z,15.33
2023-01-22T09:27:46.656Z,15.40
2023-01-22T09:28:46.687Z,15.31
2023-01-22T09:29:46.714Z,15.37
2023-01-22T09:30:47.065Z,15.38
2023-01-22T09:31:46.823Z,15.38
2023-01-22T09:32:46.972Z,15.37
2023-01-22T09:33:46.817Z,15.37
2023-01-22T09:34:46.838Z,15.35
2023-01-22T09:35:46.860Z,15.43
2023-01-22T09:36:46.895Z,15.38
2023-01-22T09:37:47.212Z,15.41
2023-01-22T09:38:46.941Z,15.44
2023-01-22T09:39:46.965Z,15.48
2023-01-22T09:40:46.995Z,15.43
2023-01-22T09:41:47.029Z,15.44
2023-01-22T09:42:47.046Z,15.48
2023-01-22T09:43:47.077Z,15.49
2023-01-22T09:44:47.405Z,15.52
2023-01-22T09:45:47.183Z,15.46
2023-01-22T09:46:47.179Z,15.46
2023-01-22T09:47:47.174Z,15.49
2023-01-22T09:48:47.338Z,15.52
2023-01-22T09:49:47.261Z,15.52
2023-01-22T09:50:47.312Z,15.49
2023-01-22T09:51:47.590Z,15.55
2023-01-22T09:52:47.324Z,15.46
2023-01-22T09:53:47.341Z,15.43
2023-01-22T09:54:47.360Z,15.48
2023-01-22T09:55:47.388Z,15.49
2023-01-22T09:56:47.431Z,15.64
2023-01-22T09:57:47.444Z,15.49
2023-01-22T09:58:47.782Z,15.51
2023-01-22T09:59:47.510Z,15.48
2023-01-22T10:01:47.552Z,15.55
2023-01-22T10:02:47.634Z,15.55
2023-01-22T10:03:47.702Z,15.58
2023-01-22T10:04:47.813Z,15.60
2023-01-22T10:05:47.961Z,15.66
2023-01-22T10:07:47.744Z,15.62
2023-01-22T10:08:47.737Z,15.64
2023-01-22T10:09:47.764Z,15.67
2023-01-22T10:10:47.787Z,15.64
2023-01-22T10:11:47.812Z,15.62
2023-01-22T10:12:48.145Z,15.59
2023-01-22T10:13:47.865Z,15.55
2023-01-22T10:14:47.909Z,15.58
2023-01-22T10:15:47.919Z,15.62
2023-01-22T10:16:47.990Z,15.60
2023-01-22T10:17:47.971Z,15.71
2023-01-22T10:18:47.998Z,15.59
2023-01-22T10:19:48.324Z,15.62
2023-01-22T10:20:48.165Z,15.73
2023-01-22T10:21:48.078Z,15.70
2023-01-22T10:22:48.118Z,15.62
2023-01-22T10:23:48.132Z,15.58
2023-01-22T10:24:48.156Z,15.64
2023-01-22T10:25:48.183Z,15.60
2023-01-22T10:26:48.514Z,15.64
2023-01-22T10:28:48.272Z,15.60
2023-01-22T10:29:48.299Z,15.59
2023-01-22T10:30:48.448Z,15.59
2023-01-22T10:31:48.473Z,15.60
2023-01-22T10:32:48.375Z,15.67
2023-01-22T10:33:48.694Z,15.64
2023-01-22T10:34:48.416Z,15.66
2023-01-22T10:35:48.447Z,15.64
2023-01-22T10:36:48.597Z,15.67
2023-01-22T10:37:48.504Z,15.68
2023-01-22T10:38:48.526Z,15.68
2023-01-22T10:39:48.567Z,15.70
2023-01-22T10:40:48.878Z,15.60
2023-01-22T10:41:48.608Z,15.73
2023-01-22T10:42:48.634Z,15.73
2023-01-22T10:43:49.066Z,15.67
2023-01-22T10:44:48.687Z,15.78
2023-01-22T10:45:48.736Z,15.68
2023-01-22T10:46:49.039Z,15.68
2023-01-22T10:47:48.763Z,15.71
2023-01-22T10:48:48.792Z,15.67
2023-01-22T10:49:48.816Z,15.64
2023-01-22T10:50:48.943Z,15.67
2023-01-22T10:51:48.872Z,15.68
2023-01-22T10:52:49.308Z,15.66
2023-01-22T10:53:48.943Z,15.68
2023-01-22T10:54:48.952Z,15.67
2023-01-22T10:55:48.979Z,15.64
2023-01-22T10:56:49.008Z,15.67
2023-01-22T10:57:49.031Z,15.67
2023-01-22T10:58:49.352Z,15.71
2023-01-22T10:59:49.087Z,15.62
2023-01-22T11:00:52.331Z,15.71
2023-01-22T11:01:49.140Z,15.71
2023-01-22T11:03:49.190Z,15.62
2023-01-22T11:04:49.262Z,15.67
2023-01-22T11:05:49.551Z,15.71
2023-01-22T11:06:49.272Z,15.67
2023-01-22T11:07:49.306Z,15.66
2023-01-22T11:08:49.453Z,15.66
2023-01-22T11:09:49.348Z,15.67
2023-01-22T11:10:49.409Z,15.74
2023-01-22T11:11:49.411Z,15.67
2023-01-22T11:12:49.731Z,15.74
2023-01-22T11:13:49.488Z,15.71
2023-01-22T11:14:49.487Z,15.78
2023-01-22T11:15:49.562Z,15.78
2023-01-22T11:16:49.548Z,15.80
2023-01-22T11:17:49.662Z,15.84
2023-01-22T11:18:49.633Z,15.88
2023-01-22T11:19:49.917Z,15.84
2023-01-22T11:20:49.656Z,15.89
2023-01-22T11:21:49.668Z,15.89
2023-01-22T11:22:49.694Z,15.91
2023-01-22T11:23:49.732Z,15.86
2023-01-22T11:24:49.872Z,15.92
2023-01-22T11:25:49.777Z,15.89
2023-01-22T11:26:50.101Z,15.89
2023-01-22T11:27:49.830Z,15.89
2023-01-22T11:28:49.856Z,15.86
2023-01-22T11:29:49.887Z,15.85
2023-01-22T11:30:50.020Z,15.86
2023-01-22T11:31:50.034Z,15.91
2023-01-22T11:32:49.972Z,15.86
2023-01-22T11:33:50.292Z,15.85
2023-01-22T11:34:50.073Z,15.81
2023-01-22T11:35:50.144Z,15.80
2023-01-22T11:36:50.069Z,15.84
2023-01-22T11:37:50.096Z,15.86
2023-01-22T11:38:50.124Z,15.81
2023-01-22T11:39:50.166Z,15.78
2023-01-22T11:40:50.606Z,15.80
2023-01-22T11:41:50.229Z,15.78
2023-01-22T11:42:50.249Z,15.85
2023-01-22T11:43:50.272Z,15.81
2023-01-22T11:44:50.280Z,15.86
2023-01-22T11:45:50.460Z,15.78
2023-01-22T11:46:50.338Z,15.93
2023-01-22T11:47:50.664Z,15.77
2023-01-22T11:48:50.391Z,15.89
2023-01-22T11:50:50.498Z,15.95
2023-01-22T11:51:50.466Z,15.96
2023-01-22T11:52:50.496Z,15.93
2023-01-22T11:53:50.521Z,15.96
2023-01-22T11:54:50.850Z,16.03
2023-01-22T11:55:50.583Z,15.98
2023-01-22T11:58:50.782Z,16.03
2023-01-22T11:59:50.703Z,16.11
2023-01-22T12:01:51.039Z,16.14
2023-01-22T12:02:50.840Z,16.16
2023-01-22T12:03:50.828Z,16.18
2023-01-22T12:04:50.834Z,16.22
2023-01-22T12:05:50.861Z,16.26
2023-01-22T12:06:50.873Z,16.29
2023-01-22T12:07:50.906Z,16.25
2023-01-22T12:08:51.244Z,16.32
2023-01-22T12:09:50.956Z,16.36
2023-01-22T12:10:52.909Z,16.45
2023-01-22T12:11:51.027Z,16.44
2023-01-22T12:12:51.036Z,16.41
2023-01-22T12:13:51.057Z,16.42
2023-01-22T12:14:51.205Z,16.57
2023-01-22T12:15:51.491Z,16.54
2023-01-22T12:16:51.201Z,16.55
2023-01-22T12:17:51.175Z,16.57
2023-01-22T12:18:51.191Z,16.63
2023-01-22T12:19:51.229Z,16.66
2023-01-22T12:20:51.287Z,16.65
2023-01-22T12:21:51.272Z,16.67
2023-01-22T12:22:51.599Z,16.70
2023-01-22T12:23:51.334Z,16.77
2023-01-22T12:24:51.383Z,16.77
2023-01-22T12:25:51.392Z,16.81
2023-01-22T12:26:51.510Z,16.70
2023-01-22T12:27:51.442Z,16.80
2023-01-22T12:28:51.457Z,16.85
2023-01-22T12:29:51.788Z,16.82
2023-01-22T12:30:51.732Z,16.82
2023-01-22T12:31:51.597Z,16.87
2023-01-22T12:32:51.586Z,16.81
2023-01-22T12:33:51.597Z,16.87
2023-01-22T12:34:51.625Z,16.87
2023-01-22T12:35:51.652Z,16.82
2023-01-22T12:36:51.977Z,16.90
2023-01-22T12:37:51.704Z,16.88
2023-01-22T12:38:51.726Z,16.82
2023-01-22T12:39:51.765Z,16.90
2023-01-22T12:40:51.785Z,16.96
2023-01-22T12:41:51.814Z,16.96
2023-01-22T12:42:52.150Z,16.91
2023-01-22T12:43:51.862Z,16.91
2023-01-22T12:44:51.893Z,16.99
2023-01-22T12:45:51.922Z,16.92
2023-01-22T12:46:52.113Z,17.02
2023-01-22T12:47:51.971Z,16.99
2023-01-22T12:48:52.300Z,16.90
2023-01-22T12:49:52.029Z,16.96
2023-01-22T12:50:52.087Z,16.87
2023-01-22T12:51:52.131Z,16.91
2023-01-22T12:52:52.122Z,16.92
2023-01-22T12:53:52.134Z,16.90
2023-01-22T12:55:52.489Z,16.92
2023-01-22T12:56:52.224Z,16.95
2023-01-22T12:57:52.243Z,16.92
2023-01-22T12:59:52.300Z,16.90
2023-01-22T13:00:52.381Z,16.98
2023-01-22T13:01:54.404Z,16.95
2023-01-22T13:02:52.508Z,16.95
2023-01-22T13:03:52.413Z,16.88
2023-01-22T13:04:52.437Z,16.96
2023-01-22T13:05:52.484Z,16.88
2023-01-22T13:06:52.502Z,16.91
2023-01-22T13:07:52.519Z,16.82
2023-01-22T13:08:52.844Z,16.91
2023-01-22T13:09:52.567Z,16.91
2023-01-22T13:10:52.603Z,16.91
2023-01-22T13:11:52.629Z,16.90
2023-01-22T13:12:52.654Z,16.91
2023-01-22T13:13:53.985Z,17.00
2023-01-22T13:14:52.709Z,16.87
2023-01-22T13:15:53.052Z,16.82
2023-01-22T13:16:52.779Z,16.81
2023-01-22T13:18:05.947Z,16.82
2023-01-22T13:18:52.949Z,16.85
2023-01-22T13:19:52.854Z,16.85
2023-01-22T13:20:52.873Z,16.85
2023-01-22T13:21:52.911Z,16.85
2023-01-22T13:22:53.216Z,16.88
2023-01-22T13:23:52.949Z,16.87
2023-01-22T13:24:52.994Z,16.87
2023-01-22T13:25:53.002Z,16.90
2023-01-22T13:26:53.029Z,16.81
2023-01-22T13:27:53.059Z,16.78
2023-01-22T13:28:53.094Z,16.78
2023-01-22T13:30:53.471Z,16.77
2023-01-22T13:31:53.205Z,16.84
2023-01-22T13:32:53.194Z,16.72
2023-01-22T13:33:53.223Z,16.73
2023-01-22T13:34:53.358Z,16.78
2023-01-22T13:35:53.288Z,16.78
2023-01-22T13:36:53.352Z,16.87
2023-01-22T13:37:53.632Z,16.88
2023-01-22T13:38:53.360Z,16.70
2023-01-22T13:39:53.462Z,16.81
2023-01-22T13:40:53.415Z,16.87
2023-01-22T13:41:53.452Z,16.80
2023-01-22T13:42:53.470Z,16.70
2023-01-22T13:43:53.499Z,16.73
2023-01-22T13:44:53.869Z,16.75
2023-01-22T13:45:53.547Z,16.77
2023-01-22T13:46:53.639Z,16.85
2023-01-22T13:47:53.604Z,16.72
2023-01-22T13:48:53.634Z,16.85
2023-01-22T13:50:54.137Z,16.84
2023-01-22T13:51:53.709Z,16.85